sensor_id;sensor_type;location;lat;lon;timestamp;P1;durP1;ratioP1;P2;durP2;ratioP2
57087;SDS011;42965;52.846;6.614;2023-02-15T00:01:50;76.95;;;30.75;;
57087;SDS011;42965;52.846;6.614;2023-02-15T00:04:21;130.75;;;35.72;;
57087;SDS011;42965;52.846;6.614;2023-02-15T00:06:49;113.13;;;36.03;;
57087;SDS011;42965;52.846;6.614;2023-02-15T00:09:15;172.63;;;37.78;;
57087;SDS011;42965;52.846;6.614;2023-02-15T00:11:42;49.33;;;31.48;;
57087;SDS011;42965;52.846;6.614;2023-02-15T00:14:18;89.32;;;33.00;;
57087;SDS011;42965;52.846;6.614;2023-02-15T00:16:52;81.18;;;34.92;;
57087;SDS011;42965;52.846;6.614;2023-02-15T00:19:20;38.40;;;30.23;;
57087;SDS011;42965;52.846;6.614;2023-02-15T00:21:47;39.30;;;30.52;;
57087;SDS011;42965;52.846;6.614;2023-02-15T00:24:16;39.47;;;30.20;;
57087;SDS011;42965;52.846;6.614;2023-02-15T00:26:44;39.38;;;30.67;;
57087;SDS011;42965;52.846;6.614;2023-02-15T00:29:12;40.42;;;29.25;;
57087;SDS011;42965;52.846;6.614;2023-02-15T00:31:40;37.67;;;29.92;;
57087;SDS011;42965;52.846;6.614;2023-02-15T00:34:09;36.30;;;30.83;;
57087;SDS011;42965;52.846;6.614;2023-02-15T00:36:47;38.15;;;29.85;;
57087;SDS011;42965;52.846;6.614;2023-02-15T00:39:14;36.38;;;30.25;;
57087;SDS011;42965;52.846;6.614;2023-02-15T00:41:41;40.47;;;31.73;;
57087;SDS011;42965;52.846;6.614;2023-02-15T00:44:08;41.78;;;30.25;;
57087;SDS011;42965;52.846;6.614;2023-02-15T00:46:35;40.22;;;30.98;;
57087;SDS011;42965;52.846;6.614;2023-02-15T00:49:03;38.95;;;30.58;;
57087;SDS011;42965;52.846;6.614;2023-02-15T00:51:30;39.63;;;30.88;;
57087;SDS011;42965;52.846;6.614;2023-02-15T00:53:57;36.08;;;28.67;;
57087;SDS011;42965;52.846;6.614;2023-02-15T00:56:29;43.27;;;31.93;;
57087;SDS011;42965;52.846;6.614;2023-02-15T00:58:55;48.92;;;34.55;;
57087;SDS011;42965;52.846;6.614;2023-02-15T01:01:21;41.35;;;31.65;;
57087;SDS011;42965;52.846;6.614;2023-02-15T01:03:56;45.90;;;33.80;;
57087;SDS011;42965;52.846;6.614;2023-02-15T01:06:23;48.03;;;34.97;;
57087;SDS011;42965;52.846;6.614;2023-02-15T01:08:49;46.30;;;34.63;;
57087;SDS011;42965;52.846;6.614;2023-02-15T01:11:18;47.67;;;34.38;;
57087;SDS011;42965;52.846;6.614;2023-02-15T01:13:53;44.85;;;33.58;;
57087;SDS011;42965;52.846;6.614;2023-02-15T01:16:23;54.78;;;37.92;;
57087;SDS011;42965;52.846;6.614;2023-02-15T01:18:50;50.90;;;35.88;;
57087;SDS011;42965;52.846;6.614;2023-02-15T01:21:19;45.97;;;33.08;;
57087;SDS011;42965;52.846;6.614;2023-02-15T01:23:47;54.92;;;32.38;;
57087;SDS011;42965;52.846;6.614;2023-02-15T01:26:16;89.32;;;32.50;;
57087;SDS011;42965;52.846;6.614;2023-02-15T01:28:44;203.68;;;41.80;;
57087;SDS011;42965;52.846;6.614;2023-02-15T01:31:11;229.32;;;44.78;;
57087;SDS011;42965;52.846;6.614;2023-02-15T01:33:40;102.57;;;36.97;;
57087;SDS011;42965;52.846;6.614;2023-02-15T01:36:09;121.28;;;41.72;;
57087;SDS011;42965;52.846;6.614;2023-02-15T01:38:35;102.28;;;40.78;;
57087;SDS011;42965;52.846;6.614;2023-02-15T01:41:05;67.80;;;41.33;;
57087;SDS011;42965;52.846;6.614;2023-02-15T01:44:03;116.93;;;41.50;;
57087;SDS011;42965;52.846;6.614;2023-02-15T01:46:56;128.35;;;46.78;;
57087;SDS011;42965;52.846;6.614;2023-02-15T01:49:24;120.72;;;48.83;;
57087;SDS011;42965;52.846;6.614;2023-02-15T01:52:01;93.28;;;47.15;;
57087;SDS011;42965;52.846;6.614;2023-02-15T01:54:29;75.97;;;47.10;;
57087;SDS011;42965;52.846;6.614;2023-02-15T01:57:00;67.63;;;43.33;;
57087;SDS011;42965;52.846;6.614;2023-02-15T01:59:30;98.70;;;47.00;;
57087;SDS011;42965;52.846;6.614;2023-02-15T02:02:02;126.47;;;49.50;;
57087;SDS011;42965;52.846;6.614;2023-02-15T02:07:22;120.70;;;48.53;;
57087;SDS011;42965;52.846;6.614;2023-02-15T02:09:52;112.35;;;48.42;;
57087;SDS011;42965;52.846;6.614;2023-02-15T02:12:22;83.68;;;45.53;;
57087;SDS011;42965;52.846;6.614;2023-02-15T02:14:50;64.78;;;42.15;;
57087;SDS011;42965;52.846;6.614;2023-02-15T02:17:27;184.80;;;49.63;;
57087;SDS011;42965;52.846;6.614;2023-02-15T02:20:17;130.02;;;46.63;;
57087;SDS011;42965;52.846;6.614;2023-02-15T02:26:12;195.02;;;53.35;;
57087;SDS011;42965;52.846;6.614;2023-02-15T02:35:04;268.10;;;57.60;;
57087;SDS011;42965;52.846;6.614;2023-02-15T02:37:45;181.70;;;55.95;;
57087;SDS011;42965;52.846;6.614;2023-02-15T02:40:17;239.35;;;58.20;;
57087;SDS011;42965;52.846;6.614;2023-02-15T02:42:59;266.45;;;59.55;;
57087;SDS011;42965;52.846;6.614;2023-02-15T02:45:40;380.40;;;65.57;;
57087;SDS011;42965;52.846;6.614;2023-02-15T02:50:48;317.67;;;65.25;;
57087;SDS011;42965;52.846;6.614;2023-02-15T02:53:16;298.38;;;62.05;;
57087;SDS011;42965;52.846;6.614;2023-02-15T02:55:47;412.08;;;73.85;;
57087;SDS011;42965;52.846;6.614;2023-02-15T03:01:06;288.02;;;53.55;;
57087;SDS011;42965;52.846;6.614;2023-02-15T03:03:53;240.52;;;48.42;;
57087;SDS011;42965;52.846;6.614;2023-02-15T03:06:29;219.45;;;47.40;;
57087;SDS011;42965;52.846;6.614;2023-02-15T03:09:16;246.77;;;50.17;;
57087;SDS011;42965;52.846;6.614;2023-02-15T03:11:49;229.43;;;47.05;;
57087;SDS011;42965;52.846;6.614;2023-02-15T03:14:16;248.93;;;50.20;;
57087;SDS011;42965;52.846;6.614;2023-02-15T03:16:46;266.30;;;48.13;;
57087;SDS011;42965;52.846;6.614;2023-02-15T03:19:16;239.13;;;47.20;;
57087;SDS011;42965;52.846;6.614;2023-02-15T03:21:49;203.10;;;46.38;;
57087;SDS011;42965;52.846;6.614;2023-02-15T03:24:24;200.52;;;44.75;;
57087;SDS011;42965;52.846;6.614;2023-02-15T03:26:54;309.15;;;55.90;;
57087;SDS011;42965;52.846;6.614;2023-02-15T03:29:24;252.82;;;48.83;;
57087;SDS011;42965;52.846;6.614;2023-02-15T03:31:57;259.08;;;52.30;;
57087;SDS011;42965;52.846;6.614;2023-02-15T03:34:26;200.80;;;48.47;;
57087;SDS011;42965;52.846;6.614;2023-02-15T03:42:09;278.77;;;52.20;;
57087;SDS011;42965;52.846;6.614;2023-02-15T03:44:42;297.05;;;56.03;;
57087;SDS011;42965;52.846;6.614;2023-02-15T03:47:15;462.10;;;72.97;;
57087;SDS011;42965;52.846;6.614;2023-02-15T03:49:47;318.50;;;56.90;;
57087;SDS011;42965;52.846;6.614;2023-02-15T03:53:03;337.48;;;59.45;;
57087;SDS011;42965;52.846;6.614;2023-02-15T03:55:33;309.42;;;59.42;;
57087;SDS011;42965;52.846;6.614;2023-02-15T03:58:00;277.65;;;55.72;;
57087;SDS011;42965;52.846;6.614;2023-02-15T04:00:48;225.73;;;52.60;;
57087;SDS011;42965;52.846;6.614;2023-02-15T04:03:51;295.60;;;52.65;;
57087;SDS011;42965;52.846;6.614;2023-02-15T04:06:26;279.02;;;51.38;;
57087;SDS011;42965;52.846;6.614;2023-02-15T04:08:53;245.48;;;51.63;;
57087;SDS011;42965;52.846;6.614;2023-02-15T04:11:37;254.85;;;48.17;;
57087;SDS011;42965;52.846;6.614;2023-02-15T04:14:04;219.07;;;44.75;;
57087;SDS011;42965;52.846;6.614;2023-02-15T04:16:50;233.93;;;45.78;;
57087;SDS011;42965;52.846;6.614;2023-02-15T04:19:17;233.93;;;48.47;;
57087;SDS011;42965;52.846;6.614;2023-02-15T04:22:02;279.33;;;51.20;;
57087;SDS011;42965;52.846;6.614;2023-02-15T04:24:47;379.33;;;62.25;;
57087;SDS011;42965;52.846;6.614;2023-02-15T04:27:34;214.68;;;47.13;;
57087;SDS011;42965;52.846;6.614;2023-02-15T04:30:03;217.15;;;47.33;;
57087;SDS011;42965;52.846;6.614;2023-02-15T04:32:31;240.23;;;52.58;;
57087;SDS011;42965;52.846;6.614;2023-02-15T04:34:57;298.45;;;62.45;;
57087;SDS011;42965;52.846;6.614;2023-02-15T04:37:24;264.92;;;58.88;;
57087;SDS011;42965;52.846;6.614;2023-02-15T04:39:51;228.70;;;58.70;;
57087;SDS011;42965;52.846;6.614;2023-02-15T04:42:17;254.82;;;63.20;;
57087;SDS011;42965;52.846;6.614;2023-02-15T04:44:44;253.45;;;58.53;;
57087;SDS011;42965;52.846;6.614;2023-02-15T04:47:10;167.20;;;47.22;;
57087;SDS011;42965;52.846;6.614;2023-02-15T04:49:36;250.07;;;56.03;;
57087;SDS011;42965;52.846;6.614;2023-02-15T04:52:03;237.48;;;51.35;;
57087;SDS011;42965;52.846;6.614;2023-02-15T04:54:30;189.18;;;47.20;;
57087;SDS011;42965;52.846;6.614;2023-02-15T04:56:56;202.05;;;50.47;;
57087;SDS011;42965;52.846;6.614;2023-02-15T04:59:22;174.25;;;49.10;;
57087;SDS011;42965;52.846;6.614;2023-02-15T05:01:48;200.25;;;52.28;;
57087;SDS011;42965;52.846;6.614;2023-02-15T05:04:15;264.23;;;62.20;;
57087;SDS011;42965;52.846;6.614;2023-02-15T05:06:41;191.00;;;50.65;;
57087;SDS011;42965;52.846;6.614;2023-02-15T05:09:07;190.85;;;52.10;;
57087;SDS011;42965;52.846;6.614;2023-02-15T05:11:34;174.90;;;51.80;;
57087;SDS011;42965;52.846;6.614;2023-02-15T05:14:00;278.45;;;61.72;;
57087;SDS011;42965;52.846;6.614;2023-02-15T05:16:26;206.85;;;55.58;;
57087;SDS011;42965;52.846;6.614;2023-02-15T05:18:54;241.18;;;59.80;;
57087;SDS011;42965;52.846;6.614;2023-02-15T05:21:21;238.90;;;62.65;;
57087;SDS011;42965;52.846;6.614;2023-02-15T05:23:48;177.60;;;55.17;;
57087;SDS011;42965;52.846;6.614;2023-02-15T05:26:18;211.48;;;56.28;;
57087;SDS011;42965;52.846;6.614;2023-02-15T05:29:05;142.43;;;49.47;;
57087;SDS011;42965;52.846;6.614;2023-02-15T05:31:33;213.00;;;58.03;;
57087;SDS011;42965;52.846;6.614;2023-02-15T05:34:00;141.00;;;51.20;;
57087;SDS011;42965;52.846;6.614;2023-02-15T05:36:26;125.45;;;49.67;;
57087;SDS011;42965;52.846;6.614;2023-02-15T05:38:55;138.40;;;49.80;;
57087;SDS011;42965;52.846;6.614;2023-02-15T05:41:21;132.23;;;52.13;;
57087;SDS011;42965;52.846;6.614;2023-02-15T05:43:48;119.72;;;45.97;;
57087;SDS011;42965;52.846;6.614;2023-02-15T05:46:14;130.95;;;46.80;;
57087;SDS011;42965;52.846;6.614;2023-02-15T05:48:43;105.97;;;46.60;;
57087;SDS011;42965;52.846;6.614;2023-02-15T05:51:10;103.90;;;45.35;;
57087;SDS011;42965;52.846;6.614;2023-02-15T05:53:40;98.50;;;43.60;;
57087;SDS011;42965;52.846;6.614;2023-02-15T05:56:08;94.32;;;44.83;;
57087;SDS011;42965;52.846;6.614;2023-02-15T05:58:36;126.65;;;48.15;;
57087;SDS011;42965;52.846;6.614;2023-02-15T06:01:22;226.35;;;58.03;;
57087;SDS011;42965;52.846;6.614;2023-02-15T06:03:49;206.80;;;59.88;;
57087;SDS011;42965;52.846;6.614;2023-02-15T06:06:16;134.93;;;49.72;;
57087;SDS011;42965;52.846;6.614;2023-02-15T06:08:42;138.70;;;52.25;;
57087;SDS011;42965;52.846;6.614;2023-02-15T06:11:11;100.60;;;46.38;;
57087;SDS011;42965;52.846;6.614;2023-02-15T06:13:38;90.78;;;46.58;;
57087;SDS011;42965;52.846;6.614;2023-02-15T06:16:06;68.10;;;46.13;;
57087;SDS011;42965;52.846;6.614;2023-02-15T06:18:32;80.90;;;47.67;;
57087;SDS011;42965;52.846;6.614;2023-02-15T06:20:59;57.33;;;45.83;;
57087;SDS011;42965;52.846;6.614;2023-02-15T06:23:26;83.28;;;46.60;;
57087;SDS011;42965;52.846;6.614;2023-02-15T06:26:02;55.45;;;45.33;;
57087;SDS011;42965;52.846;6.614;2023-02-15T06:28:30;49.63;;;40.17;;
57087;SDS011;42965;52.846;6.614;2023-02-15T06:31:02;54.30;;;44.00;;
57087;SDS011;42965;52.846;6.614;2023-02-15T06:33:29;46.78;;;41.40;;
57087;SDS011;42965;52.846;6.614;2023-02-15T06:35:59;55.80;;;43.85;;
57087;SDS011;42965;52.846;6.614;2023-02-15T06:38:26;52.45;;;42.20;;
57087;SDS011;42965;52.846;6.614;2023-02-15T06:40:53;51.22;;;43.00;;
57087;SDS011;42965;52.846;6.614;2023-02-15T06:43:19;51.17;;;42.55;;
57087;SDS011;42965;52.846;6.614;2023-02-15T06:45:45;52.70;;;42.90;;
57087;SDS011;42965;52.846;6.614;2023-02-15T06:48:11;50.63;;;44.45;;
57087;SDS011;42965;52.846;6.614;2023-02-15T06:50:38;54.75;;;42.85;;
57087;SDS011;42965;52.846;6.614;2023-02-15T06:53:05;52.22;;;43.58;;
57087;SDS011;42965;52.846;6.614;2023-02-15T06:55:31;50.30;;;41.92;;
57087;SDS011;42965;52.846;6.614;2023-02-15T06:57:57;51.03;;;41.35;;
57087;SDS011;42965;52.846;6.614;2023-02-15T07:00:27;52.28;;;41.47;;
57087;SDS011;42965;52.846;6.614;2023-02-15T07:02:54;50.55;;;40.42;;
57087;SDS011;42965;52.846;6.614;2023-02-15T07:05:21;53.40;;;41.50;;
57087;SDS011;42965;52.846;6.614;2023-02-15T07:07:48;50.22;;;37.92;;
57087;SDS011;42965;52.846;6.614;2023-02-15T07:10:15;48.35;;;37.97;;
57087;SDS011;42965;52.846;6.614;2023-02-15T07:12:45;50.97;;;39.40;;
57087;SDS011;42965;52.846;6.614;2023-02-15T07:15:13;52.72;;;40.47;;
57087;SDS011;42965;52.846;6.614;2023-02-15T07:17:41;49.22;;;37.90;;
57087;SDS011;42965;52.846;6.614;2023-02-15T07:20:15;54.75;;;40.20;;
57087;SDS011;42965;52.846;6.614;2023-02-15T07:22:45;56.28;;;42.38;;
57087;SDS011;42965;52.846;6.614;2023-02-15T07:25:12;72.07;;;45.63;;
57087;SDS011;42965;52.846;6.614;2023-02-15T07:27:40;73.13;;;49.78;;
57087;SDS011;42965;52.846;6.614;2023-02-15T07:30:09;81.78;;;48.42;;
57087;SDS011;42965;52.846;6.614;2023-02-15T07:32:37;76.90;;;49.28;;
57087;SDS011;42965;52.846;6.614;2023-02-15T07:35:26;80.90;;;48.55;;
57087;SDS011;42965;52.846;6.614;2023-02-15T07:37:54;81.78;;;47.83;;
57087;SDS011;42965;52.846;6.614;2023-02-15T07:40:20;80.65;;;51.47;;
57087;SDS011;42965;52.846;6.614;2023-02-15T07:42:57;79.47;;;49.42;;
57087;SDS011;42965;52.846;6.614;2023-02-15T07:45:26;74.85;;;48.97;;
57087;SDS011;42965;52.846;6.614;2023-02-15T07:48:01;74.18;;;48.10;;
57087;SDS011;42965;52.846;6.614;2023-02-15T07:50:31;72.20;;;46.67;;
57087;SDS011;42965;52.846;6.614;2023-02-15T07:53:02;72.68;;;46.25;;
57087;SDS011;42965;52.846;6.614;2023-02-15T07:55:32;70.22;;;45.60;;
57087;SDS011;42965;52.846;6.614;2023-02-15T07:57:58;71.32;;;44.85;;
57087;SDS011;42965;52.846;6.614;2023-02-15T08:00:41;65.22;;;44.50;;
57087;SDS011;42965;52.846;6.614;2023-02-15T08:03:23;64.40;;;43.00;;
57087;SDS011;42965;52.846;6.614;2023-02-15T08:05:58;65.68;;;44.38;;
57087;SDS011;42965;52.846;6.614;2023-02-15T08:08:36;59.25;;;41.22;;
57087;SDS011;42965;52.846;6.614;2023-02-15T08:11:14;63.63;;;42.80;;
57087;SDS011;42965;52.846;6.614;2023-02-15T08:19:11;54.90;;;38.58;;
57087;SDS011;42965;52.846;6.614;2023-02-15T08:21:41;49.25;;;37.70;;
57087;SDS011;42965;52.846;6.614;2023-02-15T08:24:09;47.05;;;34.97;;
57087;SDS011;42965;52.846;6.614;2023-02-15T08:26:38;49.00;;;35.08;;
57087;SDS011;42965;52.846;6.614;2023-02-15T08:29:05;48.40;;;34.08;;
57087;SDS011;42965;52.846;6.614;2023-02-15T08:31:36;45.43;;;34.93;;
57087;SDS011;42965;52.846;6.614;2023-02-15T08:34:03;42.70;;;32.03;;
57087;SDS011;42965;52.846;6.614;2023-02-15T08:36:30;42.25;;;32.60;;
57087;SDS011;42965;52.846;6.614;2023-02-15T08:38:57;41.50;;;32.42;;
57087;SDS011;42965;52.846;6.614;2023-02-15T08:41:29;43.53;;;34.45;;
57087;SDS011;42965;52.846;6.614;2023-02-15T08:43:58;42.13;;;34.20;;
57087;SDS011;42965;52.846;6.614;2023-02-15T08:46:26;37.50;;;32.63;;
57087;SDS011;42965;52.846;6.614;2023-02-15T08:49:02;35.65;;;30.73;;
57087;SDS011;42965;52.846;6.614;2023-02-15T08:51:33;34.55;;;30.25;;
57087;SDS011;42965;52.846;6.614;2023-02-15T08:54:03;39.30;;;30.90;;
57087;SDS011;42965;52.846;6.614;2023-02-15T08:56:38;36.38;;;29.20;;
57087;SDS011;42965;52.846;6.614;2023-02-15T08:59:06;36.50;;;30.13;;
57087;SDS011;42965;52.846;6.614;2023-02-15T09:01:36;35.80;;;29.63;;
57087;SDS011;42965;52.846;6.614;2023-02-15T09:04:04;34.83;;;29.50;;
57087;SDS011;42965;52.846;6.614;2023-02-15T09:06:34;40.58;;;31.63;;
57087;SDS011;42965;52.846;6.614;2023-02-15T09:09:01;35.95;;;30.65;;
57087;SDS011;42965;52.846;6.614;2023-02-15T09:11:30;35.40;;;29.08;;
57087;SDS011;42965;52.846;6.614;2023-02-15T09:14:00;34.50;;;30.38;;
57087;SDS011;42965;52.846;6.614;2023-02-15T09:16:30;36.28;;;31.38;;
57087;SDS011;42965;52.846;6.614;2023-02-15T09:18:58;35.67;;;30.75;;
57087;SDS011;42965;52.846;6.614;2023-02-15T09:21:30;35.00;;;30.38;;
57087;SDS011;42965;52.846;6.614;2023-02-15T09:23:59;33.08;;;29.48;;
57087;SDS011;42965;52.846;6.614;2023-02-15T09:26:28;36.80;;;31.20;;
57087;SDS011;42965;52.846;6.614;2023-02-15T09:29:00;35.38;;;29.10;;
57087;SDS011;42965;52.846;6.614;2023-02-15T09:31:29;36.20;;;30.00;;
57087;SDS011;42965;52.846;6.614;2023-02-15T09:34:01;33.45;;;29.90;;
57087;SDS011;42965;52.846;6.614;2023-02-15T09:39:06;34.50;;;29.67;;
57087;SDS011;42965;52.846;6.614;2023-02-15T09:44:33;35.28;;;29.98;;
57087;SDS011;42965;52.846;6.614;2023-02-15T09:59:04;34.47;;;30.83;;
57087;SDS011;42965;52.846;6.614;2023-02-15T10:41:54;38.95;;;34.75;;
57087;SDS011;42965;52.846;6.614;2023-02-15T10:44:29;37.60;;;33.33;;
57087;SDS011;42965;52.846;6.614;2023-02-15T10:49:59;37.42;;;32.92;;
57087;SDS011;42965;52.846;6.614;2023-02-15T11:01:34;38.55;;;33.88;;
57087;SDS011;42965;52.846;6.614;2023-02-15T11:07:27;38.85;;;33.75;;
57087;SDS011;42965;52.846;6.614;2023-02-15T11:12:59;38.78;;;34.60;;
57087;SDS011;42965;52.846;6.614;2023-02-15T11:15:33;40.15;;;35.05;;
57087;SDS011;42965;52.846;6.614;2023-02-15T11:18:33;37.67;;;33.63;;
57087;SDS011;42965;52.846;6.614;2023-02-15T11:21:07;38.33;;;34.20;;
57087;SDS011;42965;52.846;6.614;2023-02-15T11:23:59;38.95;;;33.83;;
57087;SDS011;42965;52.846;6.614;2023-02-15T11:26:34;48.78;;;43.63;;
57087;SDS011;42965;52.846;6.614;2023-02-15T11:29:17;40.40;;;34.90;;
57087;SDS011;42965;52.846;6.614;2023-02-15T11:31:54;41.65;;;37.13;;
57087;SDS011;42965;52.846;6.614;2023-02-15T11:34:25;40.05;;;35.75;;
57087;SDS011;42965;52.846;6.614;2023-02-15T11:37:01;52.53;;;47.03;;
57087;SDS011;42965;52.846;6.614;2023-02-15T11:39:34;43.50;;;39.00;;
57087;SDS011;42965;52.846;6.614;2023-02-15T11:42:02;42.03;;;36.45;;
57087;SDS011;42965;52.846;6.614;2023-02-15T11:45:36;50.05;;;44.80;;
57087;SDS011;42965;52.846;6.614;2023-02-15T11:47:37;40.78;;;35.63;;
57087;SDS011;42965;52.846;6.614;2023-02-15T11:50:14;40.78;;;36.38;;
57087;SDS011;42965;52.846;6.614;2023-02-15T11:52:49;38.25;;;34.08;;
57087;SDS011;42965;52.846;6.614;2023-02-15T11:55:20;52.00;;;46.13;;
57087;SDS011;42965;52.846;6.614;2023-02-15T11:57:50;43.67;;;38.35;;
57087;SDS011;42965;52.846;6.614;2023-02-15T12:03:14;38.22;;;34.10;;
57087;SDS011;42965;52.846;6.614;2023-02-15T12:05:45;40.17;;;35.85;;
57087;SDS011;42965;52.846;6.614;2023-02-15T12:08:21;41.20;;;36.25;;
57087;SDS011;42965;52.846;6.614;2023-02-15T12:11:00;38.28;;;34.17;;
57087;SDS011;42965;52.846;6.614;2023-02-15T12:13:32;40.83;;;35.72;;
57087;SDS011;42965;52.846;6.614;2023-02-15T12:16:02;39.85;;;35.15;;
57087;SDS011;42965;52.846;6.614;2023-02-15T12:18:37;40.50;;;36.00;;
57087;SDS011;42965;52.846;6.614;2023-02-15T12:21:15;42.28;;;35.78;;
57087;SDS011;42965;52.846;6.614;2023-02-15T12:24:03;38.92;;;34.00;;
57087;SDS011;42965;52.846;6.614;2023-02-15T12:26:43;37.70;;;32.92;;
57087;SDS011;42965;52.846;6.614;2023-02-15T12:29:17;40.70;;;34.83;;
57087;SDS011;42965;52.846;6.614;2023-02-15T12:31:47;36.78;;;32.65;;
57087;SDS011;42965;52.846;6.614;2023-02-15T12:34:19;37.45;;;32.72;;
57087;SDS011;42965;52.846;6.614;2023-02-15T12:36:54;40.35;;;32.47;;
57087;SDS011;42965;52.846;6.614;2023-02-15T12:39:24;37.85;;;33.65;;
57087;SDS011;42965;52.846;6.614;2023-02-15T12:45:02;38.47;;;31.17;;
57087;SDS011;42965;52.846;6.614;2023-02-15T12:47:44;38.70;;;31.65;;
57087;SDS011;42965;52.846;6.614;2023-02-15T12:50:23;37.03;;;31.40;;
57087;SDS011;42965;52.846;6.614;2023-02-15T12:55:31;38.67;;;31.00;;
57087;SDS011;42965;52.846;6.614;2023-02-15T12:58:05;47.60;;;40.20;;
57087;SDS011;42965;52.846;6.614;2023-02-15T13:00:33;46.13;;;35.58;;
57087;SDS011;42965;52.846;6.614;2023-02-15T13:03:00;36.95;;;30.98;;
57087;SDS011;42965;52.846;6.614;2023-02-15T13:05:32;39.20;;;33.55;;
57087;SDS011;42965;52.846;6.614;2023-02-15T13:10:58;39.08;;;33.13;;
57087;SDS011;42965;52.846;6.614;2023-02-15T13:16:28;37.38;;;31.73;;
57087;SDS011;42965;52.846;6.614;2023-02-15T13:19:06;36.45;;;31.23;;
57087;SDS011;42965;52.846;6.614;2023-02-15T13:22:02;36.88;;;32.35;;
57087;SDS011;42965;52.846;6.614;2023-02-15T13:24:35;38.85;;;33.42;;
57087;SDS011;42965;52.846;6.614;2023-02-15T13:27:16;39.47;;;31.67;;
57087;SDS011;42965;52.846;6.614;2023-02-15T13:29:54;39.67;;;32.70;;
57087;SDS011;42965;52.846;6.614;2023-02-15T13:35:04;39.53;;;29.88;;
57087;SDS011;42965;52.846;6.614;2023-02-15T13:37:45;38.20;;;30.75;;
57087;SDS011;42965;52.846;6.614;2023-02-15T13:40:25;38.08;;;30.00;;
57087;SDS011;42965;52.846;6.614;2023-02-15T13:43:21;35.83;;;28.77;;
57087;SDS011;42965;52.846;6.614;2023-02-15T13:46:36;39.53;;;30.27;;
57087;SDS011;42965;52.846;6.614;2023-02-15T13:48:53;39.63;;;31.38;;
57087;SDS011;42965;52.846;6.614;2023-02-15T14:00:21;39.95;;;29.92;;
57087;SDS011;42965;52.846;6.614;2023-02-15T14:11:48;38.95;;;30.48;;
57087;SDS011;42965;52.846;6.614;2023-02-15T14:14:43;38.92;;;30.88;;
57087;SDS011;42965;52.846;6.614;2023-02-15T14:20:59;38.95;;;29.60;;
57087;SDS011;42965;52.846;6.614;2023-02-15T14:26:00;41.47;;;31.52;;
57087;SDS011;42965;52.846;6.614;2023-02-15T14:31:28;40.33;;;31.45;;
57087;SDS011;42965;52.846;6.614;2023-02-15T14:34:18;44.17;;;31.33;;
57087;SDS011;42965;52.846;6.614;2023-02-15T14:37:05;40.13;;;30.75;;
57087;SDS011;42965;52.846;6.614;2023-02-15T14:39:34;44.67;;;31.90;;
57087;SDS011;42965;52.846;6.614;2023-02-15T14:42:54;39.63;;;33.03;;
57087;SDS011;42965;52.846;6.614;2023-02-15T14:45:39;40.50;;;33.08;;
57087;SDS011;42965;52.846;6.614;2023-02-15T14:48:26;38.72;;;31.13;;
57087;SDS011;42965;52.846;6.614;2023-02-15T14:51:03;40.65;;;32.60;;
57087;SDS011;42965;52.846;6.614;2023-02-15T14:58:55;40.30;;;30.63;;
57087;SDS011;42965;52.846;6.614;2023-02-15T15:01:32;39.38;;;31.45;;
57087;SDS011;42965;52.846;6.614;2023-02-15T15:04:01;38.00;;;31.60;;
57087;SDS011;42965;52.846;6.614;2023-02-15T15:06:35;41.22;;;32.03;;
57087;SDS011;42965;52.846;6.614;2023-02-15T15:11:49;42.38;;;33.88;;
57087;SDS011;42965;52.846;6.614;2023-02-15T15:16:59;36.85;;;29.90;;
57087;SDS011;42965;52.846;6.614;2023-02-15T15:22:18;42.88;;;32.22;;
57087;SDS011;42965;52.846;6.614;2023-02-15T15:24:51;40.25;;;32.33;;
57087;SDS011;42965;52.846;6.614;2023-02-15T15:48:49;40.30;;;32.28;;
57087;SDS011;42965;52.846;6.614;2023-02-15T15:51:18;44.38;;;32.85;;
57087;SDS011;42965;52.846;6.614;2023-02-15T15:53:49;41.28;;;31.35;;
57087;SDS011;42965;52.846;6.614;2023-02-15T15:56:26;40.13;;;30.23;;
57087;SDS011;42965;52.846;6.614;2023-02-15T15:58:58;38.08;;;31.13;;
57087;SDS011;42965;52.846;6.614;2023-02-15T16:01:38;41.00;;;29.75;;
57087;SDS011;42965;52.846;6.614;2023-02-15T16:04:11;39.83;;;29.80;;
57087;SDS011;42965;52.846;6.614;2023-02-15T16:06:58;44.70;;;32.03;;
57087;SDS011;42965;52.846;6.614;2023-02-15T16:09:41;41.72;;;32.50;;
57087;SDS011;42965;52.846;6.614;2023-02-15T16:12:32;42.85;;;31.45;;
57087;SDS011;42965;52.846;6.614;2023-02-15T16:15:01;41.53;;;32.47;;
57087;SDS011;42965;52.846;6.614;2023-02-15T16:17:50;41.63;;;30.63;;
57087;SDS011;42965;52.846;6.614;2023-02-15T16:20:23;47.35;;;31.45;;
57087;SDS011;42965;52.846;6.614;2023-02-15T16:23:03;45.30;;;31.88;;
57087;SDS011;42965;52.846;6.614;2023-02-15T16:26:02;44.50;;;31.98;;
57087;SDS011;42965;52.846;6.614;2023-02-15T16:31:19;39.75;;;31.10;;
57087;SDS011;42965;52.846;6.614;2023-02-15T16:33:53;40.92;;;30.77;;
57087;SDS011;42965;52.846;6.614;2023-02-15T16:36:25;39.22;;;29.88;;
57087;SDS011;42965;52.846;6.614;2023-02-15T16:43:53;43.58;;;32.75;;
57087;SDS011;42965;52.846;6.614;2023-02-15T16:48:55;46.58;;;31.13;;
57087;SDS011;42965;52.846;6.614;2023-02-15T16:51:25;42.03;;;32.90;;
57087;SDS011;42965;52.846;6.614;2023-02-15T16:53:55;43.15;;;32.83;;
57087;SDS011;42965;52.846;6.614;2023-02-15T16:56:29;42.55;;;31.20;;
57087;SDS011;42965;52.846;6.614;2023-02-15T16:58:56;40.80;;;30.50;;
57087;SDS011;42965;52.846;6.614;2023-02-15T17:01:28;40.88;;;29.92;;
57087;SDS011;42965;52.846;6.614;2023-02-15T17:04:10;41.17;;;29.05;;
57087;SDS011;42965;52.846;6.614;2023-02-15T17:06:40;42.13;;;29.83;;
57087;SDS011;42965;52.846;6.614;2023-02-15T17:09:13;40.15;;;29.02;;
57087;SDS011;42965;52.846;6.614;2023-02-15T17:11:44;42.65;;;31.35;;
57087;SDS011;42965;52.846;6.614;2023-02-15T17:14:11;45.60;;;31.67;;
57087;SDS011;42965;52.846;6.614;2023-02-15T17:19:27;38.78;;;30.17;;
57087;SDS011;42965;52.846;6.614;2023-02-15T17:21:57;43.25;;;30.60;;
57087;SDS011;42965;52.846;6.614;2023-02-15T17:24:41;47.30;;;31.48;;
57087;SDS011;42965;52.846;6.614;2023-02-15T17:27:20;44.53;;;30.30;;
57087;SDS011;42965;52.846;6.614;2023-02-15T17:29:50;41.53;;;30.20;;
57087;SDS011;42965;52.846;6.614;2023-02-15T17:32:24;42.17;;;30.52;;
57087;SDS011;42965;52.846;6.614;2023-02-15T17:40:14;40.95;;;29.13;;
57087;SDS011;42965;52.846;6.614;2023-02-15T17:42:45;43.88;;;30.15;;
57087;SDS011;42965;52.846;6.614;2023-02-15T17:45:13;42.05;;;29.88;;
57087;SDS011;42965;52.846;6.614;2023-02-15T17:47:40;45.50;;;30.77;;
57087;SDS011;42965;52.846;6.614;2023-02-15T17:50:07;44.13;;;30.13;;
57087;SDS011;42965;52.846;6.614;2023-02-15T17:52:34;42.58;;;30.95;;
57087;SDS011;42965;52.846;6.614;2023-02-15T17:55:07;45.78;;;32.08;;
57087;SDS011;42965;52.846;6.614;2023-02-15T17:57:57;44.17;;;30.70;;
57087;SDS011;42965;52.846;6.614;2023-02-15T18:00:26;43.10;;;30.58;;
57087;SDS011;42965;52.846;6.614;2023-02-15T18:03:12;43.63;;;29.83;;
57087;SDS011;42965;52.846;6.614;2023-02-15T18:05:56;44.17;;;31.92;;
57087;SDS011;42965;52.846;6.614;2023-02-15T18:08:42;42.38;;;30.38;;
57087;SDS011;42965;52.846;6.614;2023-02-15T18:11:27;44.03;;;31.38;;
57087;SDS011;42965;52.846;6.614;2023-02-15T18:14:06;42.47;;;30.55;;